createdAt,value
2023-01-13T00:04:47.189Z,5.27
2023-01-13T00:14:51.878Z,5.77
2023-01-13T00:24:58.426Z,4.87
2023-01-13T00:35:04.064Z,5.50
2023-01-13T00:45:09.604Z,5.70
2023-01-13T00:55:16.197Z,5.20
2023-01-13T01:05:23.097Z,5.80
2023-01-13T01:15:25.238Z,6.43
2023-01-13T01:25:27.311Z,5.13
2023-01-13T01:35:31.702Z,5.33
2023-01-13T01:45:36.491Z,6.00
2023-01-13T01:55:39.071Z,5.50
2023-01-13T02:05:46.025Z,6.00
2023-01-13T02:16:11.475Z,5.40
2023-01-13T02:26:47.729Z,6.57
2023-01-13T02:37:14.245Z,4.00
2023-01-13T02:47:24.436Z,5.37
2023-01-13T02:57:34.359Z,5.27
2023-01-13T03:07:57.240Z,5.33
2023-01-13T03:18:12.667Z,4.50
2023-01-13T03:28:30.438Z,4.87
2023-01-13T03:38:48.239Z,4.93
2023-01-13T03:48:54.791Z,5.83
2023-01-13T03:58:58.107Z,5.10
2023-01-13T04:09:11.694Z,5.63
2023-01-13T04:19:20.888Z,4.87
2023-01-13T04:29:23.294Z,5.07
2023-01-13T04:39:30.280Z,5.80
2023-01-13T04:49:33.363Z,5.73
2023-01-13T04:59:37.691Z,5.00
2023-01-13T05:09:39.787Z,5.10
2023-01-13T05:19:48.816Z,4.80
2023-01-13T05:29:58.233Z,4.87
2023-01-13T05:40:21.630Z,5.43
2023-01-13T05:50:26.138Z,4.50
2023-01-13T06:00:32.928Z,5.80
2023-01-13T06:10:39.875Z,6.07
2023-01-13T06:20:44.390Z,5.77
2023-01-13T06:30:48.714Z,8.77
2023-01-13T06:40:58.378Z,5.77
2023-01-13T06:51:00.537Z,4.83
2023-01-13T07:01:04.995Z,3.23
2023-01-13T07:11:07.562Z,5.03
2023-01-13T07:21:13.412Z,5.30
2023-01-13T07:31:21.292Z,5.23
2023-01-13T07:41:42.672Z,4.13
2023-01-13T07:51:47.305Z,4.90
2023-01-13T08:01:55.327Z,5.67
2023-01-13T08:12:20.771Z,5.63
2023-01-13T08:22:27.504Z,5.77
2023-01-13T08:32:29.616Z,5.90
2023-01-13T08:42:36.666Z,6.00
2023-01-13T08:52:41.672Z,4.37
2023-01-13T09:02:43.822Z,5.40
2023-01-13T09:13:09.013Z,5.60
2023-01-13T09:23:13.286Z,4.93
2023-01-13T09:33:33.975Z,5.47
2023-01-13T09:43:56.229Z,4.80
2023-01-13T09:54:12.461Z,4.43
2023-01-13T10:04:19.728Z,4.90
2023-01-13T10:14:32.379Z,4.17
2023-01-13T10:25:12.400Z,4.53
2023-01-13T10:35:17.006Z,4.43
2023-01-13T10:45:24.873Z,4.67
2023-01-13T10:55:38.500Z,4.47
2023-01-13T11:05:54.499Z,3.83
2023-01-13T11:16:07.005Z,4.90
2023-01-13T11:26:24.279Z,4.90
2023-01-13T11:36:40.388Z,4.80
2023-01-13T11:46:42.632Z,4.83
2023-01-13T11:56:50.813Z,4.15
2023-01-13T12:07:02.841Z,4.73
2023-01-13T12:17:10.146Z,4.63
2023-01-13T12:27:35.673Z,4.13
2023-01-13T12:38:19.022Z,5.10
2023-01-13T12:48:46.726Z,4.47
2023-01-13T12:58:48.809Z,5.13
2023-01-13T13:09:16.480Z,5.27
2023-01-13T13:19:18.800Z,4.37
2023-01-13T13:29:50.493Z,4.72
2023-01-13T13:40:11.667Z,4.57
2023-01-13T13:50:20.650Z,3.93
2023-01-13T14:00:38.150Z,4.43
2023-01-13T14:10:48.084Z,3.93
2023-01-13T14:20:58.993Z,3.72
2023-01-13T14:31:04.685Z,4.00
2023-01-13T14:41:12.352Z,3.83
2023-01-13T14:51:26.597Z,4.13
2023-01-13T15:01:36.712Z,3.83
2023-01-13T15:11:41.558Z,4.05
2023-01-13T15:21:43.671Z,4.27
2023-01-13T15:31:45.811Z,4.93
2023-01-13T15:42:07.190Z,4.50
2023-01-13T15:52:22.431Z,5.37
2023-01-13T16:02:25.489Z,5.17
2023-01-13T16:12:27.801Z,5.40
2023-01-13T16:22:31.416Z,5.73
2023-01-13T16:32:38.564Z,5.10
2023-01-13T16:42:45.510Z,5.33
2023-01-13T16:52:47.684Z,5.13
2023-01-13T17:02:51.713Z,5.80
2023-01-13T17:12:56.128Z,5.10
2023-01-13T17:23:06.695Z,4.73
2023-01-13T17:33:14.724Z,5.77
2023-01-13T17:43:20.891Z,6.63
2023-01-13T17:53:22.985Z,7.50
2023-01-13T18:03:28.352Z,8.60
2023-01-13T18:13:31.844Z,7.53
2023-01-13T18:23:57.018Z,8.50
2023-01-13T18:34:01.543Z,9.60
2023-01-13T18:44:06.024Z,8.80
2023-01-13T18:54:22.893Z,10.30
2023-01-13T19:04:28.733Z,9.83
2023-01-13T19:14:35.907Z,10.63
2023-01-13T19:24:42.303Z,9.90
2023-01-13T19:34:53.351Z,9.40
2023-01-13T19:45:16.552Z,8.60
2023-01-13T19:55:20.035Z,8.67
2023-01-13T20:05:26.364Z,8.10
2023-01-13T20:15:31.612Z,7.37
2023-01-13T20:25:34.341Z,5.70
2023-01-13T20:35:38.754Z,4.83
2023-01-13T20:45:44.749Z,5.17
2023-01-13T20:55:46.944Z,4.87
2023-01-13T21:05:49.282Z,6.37
2023-01-13T21:15:59.590Z,8.27
2023-01-13T21:26:04.362Z,4.53
2023-01-13T21:36:16.232Z,4.77
2023-01-13T21:46:44.329Z,5.43
2023-01-13T21:56:49.218Z,4.77
2023-01-13T22:07:02.299Z,4.90
2023-01-13T22:17:07.730Z,4.80
2023-01-13T22:27:32.432Z,4.93
2023-01-13T22:37:35.288Z,4.20
2023-01-13T22:47:38.000Z,3.43
2023-01-13T22:57:48.043Z,4.73
2023-01-13T23:07:50.593Z,4.43
2023-01-13T23:17:57.301Z,4.87
2023-01-13T23:27:59.488Z,4.07
2023-01-13T23:38:04.447Z,5.37
2023-01-13T23:48:19.574Z,5.20
2023-01-13T23:58:23.842Z,6.00
